sensor_id;sensor_type;location;lat;lon;timestamp;pressure;altitude;pressure_sealevel;temperature;humidity
44044;BME280;29709;52.396;16.796;2023-12-04T00:03:08;102298.42;;;-1.12;81.23
44044;BME280;29709;52.396;16.796;2023-12-04T00:06:23;102303.28;;;-1.22;81.39
44044;BME280;29709;52.396;16.796;2023-12-04T00:09:36;102308.73;;;-1.23;81.37
44044;BME280;29709;52.396;16.796;2023-12-04T00:12:50;102309.37;;;-1.17;81.98
44044;BME280;29709;52.396;16.796;2023-12-04T00:16:04;102303.51;;;-1.04;81.60
44044;BME280;29709;52.396;16.796;2023-12-04T00:19:18;102308.09;;;-1.06;81.24
44044;BME280;29709;52.396;16.796;2023-12-04T00:22:32;102310.24;;;-1.16;81.30
44044;BME280;29709;52.396;16.796;2023-12-04T00:25:45;102302.41;;;-1.22;81.41
44044;BME280;29709;52.396;16.796;2023-12-04T00:28:59;102302.61;;;-1.28;81.75
44044;BME280;29709;52.396;16.796;2023-12-04T00:32:12;102303.61;;;-1.31;81.71
44044;BME280;29709;52.396;16.796;2023-12-04T00:35:26;102294.64;;;-1.31;81.68
44044;BME280;29709;52.396;16.796;2023-12-04T00:38:40;102301.13;;;-1.37;81.66
44044;BME280;29709;52.396;16.796;2023-12-04T00:41:53;102306.48;;;-1.35;81.89
44044;BME280;29709;52.396;16.796;2023-12-04T00:45:07;102302.79;;;-1.33;81.91
44044;BME280;29709;52.396;16.796;2023-12-04T00:48:21;102306.30;;;-1.31;81.91
44044;BME280;29709;52.396;16.796;2023-12-04T00:54:55;102315.21;;;-1.29;81.53
44044;BME280;29709;52.396;16.796;2023-12-04T00:58:14;102314.45;;;-1.32;81.69
44044;BME280;29709;52.396;16.796;2023-12-04T01:01:29;102323.24;;;-1.27;81.64
44044;BME280;29709;52.396;16.796;2023-12-04T01:04:44;102316.98;;;-1.28;81.64
44044;BME280;29709;52.396;16.796;2023-12-04T01:07:57;102319.85;;;-1.32;81.04
44044;BME280;29709;52.396;16.796;2023-12-04T01:11:10;102323.81;;;-1.42;81.51
44044;BME280;29709;52.396;16.796;2023-12-04T01:14:24;102316.60;;;-1.42;81.61
44044;BME280;29709;52.396;16.796;2023-12-04T01:17:37;102311.88;;;-1.35;81.85
44044;BME280;29709;52.396;16.796;2023-12-04T01:20:51;102319.79;;;-1.31;81.31
44044;BME280;29709;52.396;16.796;2023-12-04T01:24:04;102314.66;;;-1.38;81.27
44044;BME280;29709;52.396;16.796;2023-12-04T01:27:18;102318.36;;;-1.41;81.20
44044;BME280;29709;52.396;16.796;2023-12-04T01:30:31;102310.21;;;-1.39;81.39
44044;BME280;29709;52.396;16.796;2023-12-04T01:33:45;102307.45;;;-1.38;81.52
44044;BME280;29709;52.396;16.796;2023-12-04T01:36:58;102315.61;;;-1.39;81.21
44044;BME280;29709;52.396;16.796;2023-12-04T01:40:12;102312.20;;;-1.44;81.19
44044;BME280;29709;52.396;16.796;2023-12-04T01:43:25;102322.11;;;-1.45;81.25
44044;BME280;29709;52.396;16.796;2023-12-04T01:46:39;102320.19;;;-1.41;81.37
44044;BME280;29709;52.396;16.796;2023-12-04T01:49:52;102330.70;;;-1.34;81.53
44044;BME280;29709;52.396;16.796;2023-12-04T01:53:06;102322.28;;;-1.25;81.23
44044;BME280;29709;52.396;16.796;2023-12-04T01:56:20;102322.80;;;-1.15;81.46
44044;BME280;29709;52.396;16.796;2023-12-04T01:59:34;102320.27;;;-1.20;80.89
44044;BME280;29709;52.396;16.796;2023-12-04T02:02:48;102322.16;;;-1.22;80.76
44044;BME280;29709;52.396;16.796;2023-12-04T02:06:02;102320.27;;;-1.20;80.98
44044;BME280;29709;52.396;16.796;2023-12-04T02:09:18;102319.34;;;-1.19;81.08
44044;BME280;29709;52.396;16.796;2023-12-04T02:12:32;102322.92;;;-1.18;80.96
44044;BME280;29709;52.396;16.796;2023-12-04T02:15:49;102323.86;;;-1.19;80.89
44044;BME280;29709;52.396;16.796;2023-12-04T02:19:03;102319.28;;;-1.17;80.89
44044;BME280;29709;52.396;16.796;2023-12-04T02:22:18;102324.68;;;-1.17;80.92
44044;BME280;29709;52.396;16.796;2023-12-04T02:25:32;102322.80;;;-1.15;80.98
44044;BME280;29709;52.396;16.796;2023-12-04T02:28:51;102330.73;;;-1.10;81.03
44044;BME280;29709;52.396;16.796;2023-12-04T02:32:08;102324.29;;;-1.06;80.98
44044;BME280;29709;52.396;16.796;2023-12-04T02:35:27;102325.10;;;-1.04;80.39
44044;BME280;29709;52.396;16.796;2023-12-04T02:38:43;102320.01;;;-1.12;80.70
44044;BME280;29709;52.396;16.796;2023-12-04T02:41:57;102318.95;;;-1.08;80.60
44044;BME280;29709;52.396;16.796;2023-12-04T02:45:10;102313.34;;;-1.02;81.06
44044;BME280;29709;52.396;16.796;2023-12-04T02:48:23;102302.63;;;-1.05;80.53
44044;BME280;29709;52.396;16.796;2023-12-04T02:51:40;102301.76;;;-1.05;80.64
44044;BME280;29709;52.396;16.796;2023-12-04T02:54:54;102303.51;;;-1.04;80.52
44044;BME280;29709;52.396;16.796;2023-12-04T02:58:08;102301.06;;;-1.10;80.59
44044;BME280;29709;52.396;16.796;2023-12-04T03:01:21;102305.57;;;-1.11;80.69
44044;BME280;29709;52.396;16.796;2023-12-04T03:04:35;102291.96;;;-1.08;80.81
44044;BME280;29709;52.396;16.796;2023-12-04T03:07:48;102295.73;;;-1.12;80.42
44044;BME280;29709;52.396;16.796;2023-12-04T03:11:02;102304.82;;;-1.14;80.59
44044;BME280;29709;52.396;16.796;2023-12-04T03:14:16;102309.42;;;-1.18;80.56
44044;BME280;29709;52.396;16.796;2023-12-04T03:17:30;102305.18;;;-1.25;80.58
44044;BME280;29709;52.396;16.796;2023-12-04T03:20:43;102305.57;;;-1.36;80.49
44044;BME280;29709;52.396;16.796;2023-12-04T03:23:56;102314.05;;;-1.47;80.88
44044;BME280;29709;52.396;16.796;2023-12-04T03:27:10;102309.09;;;-1.59;80.97
44044;BME280;29709;52.396;16.796;2023-12-04T03:30:23;102310.04;;;-1.60;81.28
44044;BME280;29709;52.396;16.796;2023-12-04T03:33:36;102306.70;;;-1.66;81.35
44044;BME280;29709;52.396;16.796;2023-12-04T03:36:50;102305.76;;;-1.65;81.67
44044;BME280;29709;52.396;16.796;2023-12-04T03:40:05;102315.66;;;-1.66;81.95
44044;BME280;29709;52.396;16.796;2023-12-04T03:43:19;102296.93;;;-1.70;81.40
44044;BME280;29709;52.396;16.796;2023-12-04T03:46:32;102308.59;;;-1.70;81.58
44044;BME280;29709;52.396;16.796;2023-12-04T03:49:45;102299.48;;;-1.66;81.55
44044;BME280;29709;52.396;16.796;2023-12-04T03:52:59;102305.13;;;-1.73;81.98
44044;BME280;29709;52.396;16.796;2023-12-04T03:56:12;102311.34;;;-1.71;81.79
44044;BME280;29709;52.396;16.796;2023-12-04T03:59:26;102302.33;;;-1.70;81.67
44044;BME280;29709;52.396;16.796;2023-12-04T04:02:40;102298.18;;;-1.81;81.47
44044;BME280;29709;52.396;16.796;2023-12-04T04:05:54;102297.61;;;-1.90;81.68
44044;BME280;29709;52.396;16.796;2023-12-04T04:09:07;102297.67;;;-1.92;81.95
44044;BME280;29709;52.396;16.796;2023-12-04T04:12:20;102302.95;;;-1.89;82.22
44044;BME280;29709;52.396;16.796;2023-12-04T04:15:34;102295.04;;;-1.93;82.34
44044;BME280;29709;52.396;16.796;2023-12-04T04:18:48;102301.05;;;-1.85;82.01
44044;BME280;29709;52.396;16.796;2023-12-04T04:22:01;102301.98;;;-1.86;81.53
44044;BME280;29709;52.396;16.796;2023-12-04T04:25:15;102302.95;;;-1.89;81.63
44044;BME280;29709;52.396;16.796;2023-12-04T04:28:29;102294.97;;;-1.92;81.25
44044;BME280;29709;52.396;16.796;2023-12-04T04:31:42;102292.91;;;-1.84;81.91
44044;BME280;29709;52.396;16.796;2023-12-04T04:34:56;102289.22;;;-1.81;81.60
44044;BME280;29709;52.396;16.796;2023-12-04T04:38:09;102285.95;;;-1.91;80.79
44044;BME280;29709;52.396;16.796;2023-12-04T04:41:23;102291.81;;;-2.05;80.90
44044;BME280;29709;52.396;16.796;2023-12-04T04:44:38;102282.18;;;-2.12;80.87
44044;BME280;29709;52.396;16.796;2023-12-04T04:47:51;102287.09;;;-2.24;80.83
44044;BME280;29709;52.396;16.796;2023-12-04T04:51:05;102290.82;;;-2.28;81.38
44044;BME280;29709;52.396;16.796;2023-12-04T04:54:18;102295.57;;;-2.37;81.78
44044;BME280;29709;52.396;16.796;2023-12-04T04:57:32;102296.39;;;-2.35;81.70
44044;BME280;29709;52.396;16.796;2023-12-04T05:00:46;102296.64;;;-2.42;81.76
44044;BME280;29709;52.396;16.796;2023-12-04T05:04:01;102293.22;;;-2.47;82.01
44044;BME280;29709;52.396;16.796;2023-12-04T05:07:15;102287.73;;;-2.44;82.35
44044;BME280;29709;52.396;16.796;2023-12-04T05:10:29;102291.36;;;-2.45;81.90
44044;BME280;29709;52.396;16.796;2023-12-04T05:13:42;102286.15;;;-2.51;82.04
44044;BME280;29709;52.396;16.796;2023-12-04T05:16:56;102287.09;;;-2.52;82.06
44044;BME280;29709;52.396;16.796;2023-12-04T05:20:10;102277.13;;;-2.49;82.29
44044;BME280;29709;52.396;16.796;2023-12-04T05:23:23;102278.08;;;-2.51;82.26
44044;BME280;29709;52.396;16.796;2023-12-04T05:26:36;102274.37;;;-2.47;82.23
44044;BME280;29709;52.396;16.796;2023-12-04T05:29:50;102277.61;;;-2.36;81.70
44044;BME280;29709;52.396;16.796;2023-12-04T05:33:04;102275.02;;;-2.39;82.22
44044;BME280;29709;52.396;16.796;2023-12-04T05:36:18;102269.36;;;-2.32;81.90
44044;BME280;29709;52.396;16.796;2023-12-04T05:39:31;102274.86;;;-2.35;81.31
44044;BME280;29709;52.396;16.796;2023-12-04T05:42:45;102283.71;;;-2.31;81.62
44044;BME280;29709;52.396;16.796;2023-12-04T05:45:58;102281.75;;;-2.26;81.66
44044;BME280;29709;52.396;16.796;2023-12-04T05:49:12;102279.72;;;-2.19;81.51
44044;BME280;29709;52.396;16.796;2023-12-04T05:52:26;102280.63;;;-2.19;81.55
44044;BME280;29709;52.396;16.796;2023-12-04T05:55:39;102265.90;;;-2.09;81.25
44044;BME280;29709;52.396;16.796;2023-12-04T05:58:53;102260.87;;;-2.19;80.96
44044;BME280;29709;52.396;16.796;2023-12-04T06:02:06;102269.74;;;-2.16;80.99
44044;BME280;29709;52.396;16.796;2023-12-04T06:05:20;102261.78;;;-2.19;81.03
44044;BME280;29709;52.396;16.796;2023-12-04T06:08:33;102265.90;;;-2.09;81.53
44044;BME280;29709;52.396;16.796;2023-12-04T06:11:47;102267.46;;;-2.01;80.88
44044;BME280;29709;52.396;16.796;2023-12-04T06:15:00;102266.47;;;-1.99;80.89
44044;BME280;29709;52.396;16.796;2023-12-04T06:18:14;102265.59;;;-1.99;80.77
44044;BME280;29709;52.396;16.796;2023-12-04T06:21:27;102250.10;;;-1.93;80.99
44044;BME280;29709;52.396;16.796;2023-12-04T06:24:41;102268.48;;;-1.79;81.02
44044;BME280;29709;52.396;16.796;2023-12-04T06:27:55;102260.77;;;-1.90;80.13
44044;BME280;29709;52.396;16.796;2023-12-04T06:31:10;102259.00;;;-1.91;80.70
44044;BME280;29709;52.396;16.796;2023-12-04T06:34:24;102253.18;;;-1.79;80.55
44044;BME280;29709;52.396;16.796;2023-12-04T06:37:38;102259.64;;;-1.83;80.40
44044;BME280;29709;52.396;16.796;2023-12-04T06:40:55;102256.32;;;-1.91;80.16
44044;BME280;29709;52.396;16.796;2023-12-04T06:44:10;102255.76;;;-2.00;80.93
44044;BME280;29709;52.396;16.796;2023-12-04T06:47:24;102249.91;;;-1.87;81.23
44044;BME280;29709;52.396;16.796;2023-12-04T06:50:38;102266.66;;;-1.79;80.59
44044;BME280;29709;52.396;16.796;2023-12-04T06:53:53;102267.52;;;-1.77;80.62
44044;BME280;29709;52.396;16.796;2023-12-04T06:57:06;102254.24;;;-1.83;80.58
44044;BME280;29709;52.396;16.796;2023-12-04T07:00:21;102273.98;;;-1.82;80.73
44044;BME280;29709;52.396;16.796;2023-12-04T07:03:34;102265.14;;;-1.86;80.52
44044;BME280;29709;52.396;16.796;2023-12-04T07:06:49;102265.20;;;-1.87;81.41
44044;BME280;29709;52.396;16.796;2023-12-04T07:10:03;102262.77;;;-1.70;81.31
44044;BME280;29709;52.396;16.796;2023-12-04T07:13:17;102269.33;;;-1.52;80.97
44044;BME280;29709;52.396;16.796;2023-12-04T07:16:30;102267.01;;;-1.38;80.34
44044;BME280;29709;52.396;16.796;2023-12-04T07:19:44;102274.54;;;-1.48;80.38
44044;BME280;29709;52.396;16.796;2023-12-04T07:22:58;102275.97;;;-1.37;80.78
44044;BME280;29709;52.396;16.796;2023-12-04T07:26:11;102267.99;;;-1.40;80.11
44044;BME280;29709;52.396;16.796;2023-12-04T07:29:25;102265.51;;;-1.47;80.25
44044;BME280;29709;52.396;16.796;2023-12-04T07:32:38;102268.13;;;-1.43;80.59
44044;BME280;29709;52.396;16.796;2023-12-04T07:35:52;102274.45;;;-1.44;80.69
44044;BME280;29709;52.396;16.796;2023-12-04T07:39:06;102271.38;;;-1.34;80.95
44044;BME280;29709;52.396;16.796;2023-12-04T07:42:20;102266.26;;;-1.18;80.90
44044;BME280;29709;52.396;16.796;2023-12-04T07:45:33;102264.45;;;-1.18;80.00
44044;BME280;29709;52.396;16.796;2023-12-04T07:48:49;102269.91;;;-1.19;80.60
44044;BME280;29709;52.396;16.796;2023-12-04T07:52:03;102274.09;;;-1.10;80.20
44044;BME280;29709;52.396;16.796;2023-12-04T07:55:17;102268.74;;;-1.12;80.13
44044;BME280;29709;52.396;16.796;2023-12-04T07:58:31;102272.92;;;-1.03;80.40
44044;BME280;29709;52.396;16.796;2023-12-04T08:01:45;102278.25;;;-1.02;80.00
44044;BME280;29709;52.396;16.796;2023-12-04T08:04:59;102281.29;;;-1.11;79.94
44044;BME280;29709;52.396;16.796;2023-12-04T08:08:13;102275.08;;;-1.13;80.04
44044;BME280;29709;52.396;16.796;2023-12-04T08:11:28;102278.75;;;-1.16;80.05
44044;BME280;29709;52.396;16.796;2023-12-04T08:14:41;102282.58;;;-1.21;80.04
44044;BME280;29709;52.396;16.796;2023-12-04T08:17:55;102284.22;;;-1.17;80.17
44044;BME280;29709;52.396;16.796;2023-12-04T08:21:10;102276.12;;;-1.17;80.27
44044;BME280;29709;52.396;16.796;2023-12-04T08:24:24;102287.73;;;-1.15;80.46
44044;BME280;29709;52.396;16.796;2023-12-04T08:27:38;102300.46;;;-1.19;80.09
44044;BME280;29709;52.396;16.796;2023-12-04T08:30:51;102295.88;;;-1.17;80.06
44044;BME280;29709;52.396;16.796;2023-12-04T08:34:05;102288.79;;;-1.19;79.88
44044;BME280;29709;52.396;16.796;2023-12-04T08:37:19;102283.27;;;-1.16;80.24
44044;BME280;29709;52.396;16.796;2023-12-04T08:40:34;102281.23;;;-1.09;80.27
44044;BME280;29709;52.396;16.796;2023-12-04T08:43:47;102284.88;;;-1.10;79.98
44044;BME280;29709;52.396;16.796;2023-12-04T08:47:01;102290.27;;;-1.10;80.11
44044;BME280;29709;52.396;16.796;2023-12-04T08:50:14;102295.19;;;-0.98;79.80
44044;BME280;29709;52.396;16.796;2023-12-04T08:53:28;102283.99;;;-0.88;79.40
44044;BME280;29709;52.396;16.796;2023-12-04T08:56:42;102278.00;;;-0.96;79.06
44044;BME280;29709;52.396;16.796;2023-12-04T08:59:57;102285.06;;;-0.92;79.38
44044;BME280;29709;52.396;16.796;2023-12-04T09:03:11;102278.73;;;-0.91;79.06
44044;BME280;29709;52.396;16.796;2023-12-04T09:06:25;102281.58;;;-0.95;78.49
44044;BME280;29709;52.396;16.796;2023-12-04T09:09:38;102277.13;;;-0.96;78.50
44044;BME280;29709;52.396;16.796;2023-12-04T09:13:27;102280.95;;;-1.02;78.59
44044;BME280;29709;52.396;16.796;2023-12-04T09:16:43;102273.48;;;-0.95;78.87
44044;BME280;29709;52.396;16.796;2023-12-04T09:19:58;102279.18;;;-0.79;78.76
44044;BME280;29709;52.396;16.796;2023-12-04T09:23:12;102279.84;;;-0.73;78.53
44044;BME280;29709;52.396;16.796;2023-12-04T09:26:25;102280.59;;;-0.69;77.79
44044;BME280;29709;52.396;16.796;2023-12-04T09:29:40;102271.67;;;-0.71;77.73
44044;BME280;29709;52.396;16.796;2023-12-04T09:32:54;102278.02;;;-0.72;77.59
44044;BME280;29709;52.396;16.796;2023-12-04T09:36:08;102273.59;;;-0.75;77.61
44044;BME280;29709;52.396;16.796;2023-12-04T09:39:22;102273.37;;;-0.69;77.04
44044;BME280;29709;52.396;16.796;2023-12-04T09:42:36;102260.62;;;-0.65;77.28
44044;BME280;29709;52.396;16.796;2023-12-04T09:45:50;102264.26;;;-0.66;76.65
44044;BME280;29709;52.396;16.796;2023-12-04T09:49:04;102262.02;;;-0.55;77.06
44044;BME280;29709;52.396;16.796;2023-12-04T09:52:19;102261.40;;;-0.40;76.65
44044;BME280;29709;52.396;16.796;2023-12-04T09:55:34;102268.93;;;-0.26;76.26
44044;BME280;29709;52.396;16.796;2023-12-04T09:58:53;102265.66;;;-0.12;75.91
44044;BME280;29709;52.396;16.796;2023-12-04T10:02:09;102248.10;;;-0.02;75.51
44044;BME280;29709;52.396;16.796;2023-12-04T10:05:22;102244.41;;;0.01;75.25
44044;BME280;29709;52.396;16.796;2023-12-04T10:08:37;102230.63;;;0.07;74.90
44044;BME280;29709;52.396;16.796;2023-12-04T10:11:51;102227.38;;;0.19;74.51
44044;BME280;29709;52.396;16.796;2023-12-04T10:15:12;102219.20;;;0.20;73.60
44044;BME280;29709;52.396;16.796;2023-12-04T10:18:29;102220.63;;;0.29;73.65
44044;BME280;29709;52.396;16.796;2023-12-04T10:21:49;102223.06;;;0.35;73.43
44044;BME280;29709;52.396;16.796;2023-12-04T10:28:24;102216.77;;;0.55;72.70
44044;BME280;29709;52.396;16.796;2023-12-04T10:31:37;102205.38;;;0.67;72.89
44044;BME280;29709;52.396;16.796;2023-12-04T10:34:51;102214.75;;;0.79;72.92
44044;BME280;29709;52.396;16.796;2023-12-04T10:38:06;102211.34;;;0.94;72.32
44044;BME280;29709;52.396;16.796;2023-12-04T10:41:20;102213.02;;;0.97;71.72
44044;BME280;29709;52.396;16.796;2023-12-04T10:44:33;102207.30;;;1.03;71.44
44044;BME280;29709;52.396;16.796;2023-12-04T10:47:50;102212.08;;;1.17;72.13
44044;BME280;29709;52.396;16.796;2023-12-04T10:51:04;102213.68;;;1.21;70.52
44044;BME280;29709;52.396;16.796;2023-12-04T10:54:18;102204.23;;;1.29;71.33
44044;BME280;29709;52.396;16.796;2023-12-04T10:57:36;102198.59;;;1.34;70.66
44044;BME280;29709;52.396;16.796;2023-12-04T11:00:53;102205.54;;;1.39;70.66
44044;BME280;29709;52.396;16.796;2023-12-04T11:04:13;102201.21;;;1.35;69.73
44044;BME280;29709;52.396;16.796;2023-12-04T11:07:32;102189.45;;;1.36;69.76
44044;BME280;29709;52.396;16.796;2023-12-04T11:10:56;102189.13;;;1.42;69.96
44044;BME280;29709;52.396;16.796;2023-12-04T11:14:12;102191.92;;;1.41;67.81
44044;BME280;29709;52.396;16.796;2023-12-04T11:17:34;102193.03;;;1.37;68.56
44044;BME280;29709;52.396;16.796;2023-12-04T11:20:55;102202.32;;;1.31;68.39
44044;BME280;29709;52.396;16.796;2023-12-04T11:24:09;102187.98;;;1.29;68.18
44044;BME280;29709;52.396;16.796;2023-12-04T11:27:24;102177.52;;;1.22;68.36
44044;BME280;29709;52.396;16.796;2023-12-04T11:30:40;102180.82;;;1.28;67.71
44044;BME280;29709;52.396;16.796;2023-12-04T11:34:02;102176.98;;;1.32;68.81
44044;BME280;29709;52.396;16.796;2023-12-04T11:37:16;102174.12;;;1.35;67.09
44044;BME280;29709;52.396;16.796;2023-12-04T11:40:30;102169.37;;;1.40;67.94
44044;BME280;29709;52.396;16.796;2023-12-04T11:43:45;102158.95;;;1.50;67.85
44044;BME280;29709;52.396;16.796;2023-12-04T11:47:05;102159.46;;;1.58;68.09
44044;BME280;29709;52.396;16.796;2023-12-04T11:50:20;102154.50;;;1.66;67.68
44044;BME280;29709;52.396;16.796;2023-12-04T11:53:38;102149.98;;;1.67;67.13
44044;BME280;29709;52.396;16.796;2023-12-04T12:00:23;102143.60;;;1.68;65.97
44044;BME280;29709;52.396;16.796;2023-12-04T12:03:38;102136.82;;;1.59;65.69
44044;BME280;29709;52.396;16.796;2023-12-04T12:06:53;102134.23;;;1.56;66.15
44044;BME280;29709;52.396;16.796;2023-12-04T12:10:11;102134.23;;;1.56;65.93
44044;BME280;29709;52.396;16.796;2023-12-04T12:13:26;102121.06;;;1.31;64.97
44044;BME280;29709;52.396;16.796;2023-12-04T12:16:46;102117.86;;;1.23;65.12
44044;BME280;29709;52.396;16.796;2023-12-04T12:19:59;102122.37;;;1.05;64.23
44044;BME280;29709;52.396;16.796;2023-12-04T12:23:18;102115.57;;;0.97;64.78
44044;BME280;29709;52.396;16.796;2023-12-04T12:26:33;102113.74;;;0.78;64.47
44044;BME280;29709;52.396;16.796;2023-12-04T12:29:46;102105.91;;;0.72;64.72
44044;BME280;29709;52.396;16.796;2023-12-04T12:33:00;102102.84;;;0.80;65.03
44044;BME280;29709;52.396;16.796;2023-12-04T12:36:14;102093.84;;;0.79;64.87
44044;BME280;29709;52.396;16.796;2023-12-04T12:39:30;102097.14;;;0.86;65.70
44044;BME280;29709;52.396;16.796;2023-12-04T12:42:44;102089.47;;;0.77;65.39
44044;BME280;29709;52.396;16.796;2023-12-04T12:45:59;102082.87;;;0.82;65.70
44044;BME280;29709;52.396;16.796;2023-12-04T12:49:16;102079.95;;;0.87;65.98
44044;BME280;29709;52.396;16.796;2023-12-04T12:52:33;102074.38;;;0.90;65.86
44044;BME280;29709;52.396;16.796;2023-12-04T12:55:47;102069.93;;;0.89;65.68
44044;BME280;29709;52.396;16.796;2023-12-04T12:59:02;102066.42;;;0.87;65.69
44044;BME280;29709;52.396;16.796;2023-12-04T13:02:15;102064.79;;;0.83;65.38
44044;BME280;29709;52.396;16.796;2023-12-04T13:05:29;102062.48;;;0.75;65.29
44044;BME280;29709;52.396;16.796;2023-12-04T13:08:43;102055.97;;;0.61;64.51
44044;BME280;29709;52.396;16.796;2023-12-04T13:11:57;102052.98;;;0.48;65.00
44044;BME280;29709;52.396;16.796;2023-12-04T13:15:12;102048.16;;;0.36;64.92
44044;BME280;29709;52.396;16.796;2023-12-04T13:18:26;102048.51;;;0.28;64.97
44044;BME280;29709;52.396;16.796;2023-12-04T13:21:40;102044.57;;;0.16;65.22
44044;BME280;29709;52.396;16.796;2023-12-04T13:24:53;102039.08;;;0.18;65.43
44044;BME280;29709;52.396;16.796;2023-12-04T13:28:06;102031.57;;;0.24;65.42
44044;BME280;29709;52.396;16.796;2023-12-04T13:31:20;102026.38;;;0.39;65.46
44044;BME280;29709;52.396;16.796;2023-12-04T13:34:33;102028.50;;;0.32;65.59
44044;BME280;29709;52.396;16.796;2023-12-04T13:37:47;102026.60;;;0.34;65.52
44044;BME280;29709;52.396;16.796;2023-12-04T13:41:08;102019.52;;;0.32;65.26
44044;BME280;29709;52.396;16.796;2023-12-04T13:44:32;102018.70;;;0.29;65.70
44044;BME280;29709;52.396;16.796;2023-12-04T13:47:46;102017.46;;;0.37;65.72
44044;BME280;29709;52.396;16.796;2023-12-04T13:50:59;102018.27;;;0.39;65.52
44044;BME280;29709;52.396;16.796;2023-12-04T13:54:14;102019.57;;;0.30;65.48
44044;BME280;29709;52.396;16.796;2023-12-04T13:57:34;102013.71;;;0.20;66.06
44044;BME280;29709;52.396;16.796;2023-12-04T14:00:57;102013.35;;;0.09;65.96
44044;BME280;29709;52.396;16.796;2023-12-04T14:04:12;102002.46;;;-0.08;65.92
44044;BME280;29709;52.396;16.796;2023-12-04T14:07:25;102008.40;;;0.00;65.89
44044;BME280;29709;52.396;16.796;2023-12-04T14:10:39;102017.42;;;-0.01;66.61
44044;BME280;29709;52.396;16.796;2023-12-04T14:13:52;102015.60;;;-0.01;66.59
44044;BME280;29709;52.396;16.796;2023-12-04T14:17:06;102016.84;;;-0.08;66.02
44044;BME280;29709;52.396;16.796;2023-12-04T14:20:22;102006.47;;;-0.17;66.81
44044;BME280;29709;52.396;16.796;2023-12-04T14:23:35;102011.19;;;-0.22;66.98
44044;BME280;29709;52.396;16.796;2023-12-04T14:26:49;102007.37;;;-0.37;67.23
44044;BME280;29709;52.396;16.796;2023-12-04T14:30:02;102005.37;;;-0.52;67.93
44044;BME280;29709;52.396;16.796;2023-12-04T14:33:16;102000.22;;;-0.58;68.28
44044;BME280;29709;52.396;16.796;2023-12-04T14:36:30;101990.51;;;-0.62;68.32
44044;BME280;29709;52.396;16.796;2023-12-04T14:39:47;101995.77;;;-0.59;68.48
44044;BME280;29709;52.396;16.796;2023-12-04T14:43:00;101998.06;;;-0.70;68.78
44044;BME280;29709;52.396;16.796;2023-12-04T14:46:14;101991.97;;;-0.75;68.84
44044;BME280;29709;52.396;16.796;2023-12-04T14:49:28;101990.08;;;-0.73;69.31
44044;BME280;29709;52.396;16.796;2023-12-04T14:52:41;101983.38;;;-0.85;69.00
44044;BME280;29709;52.396;16.796;2023-12-04T14:56:03;101976.31;;;-0.88;69.38
44044;BME280;29709;52.396;16.796;2023-12-04T14:59:28;101978.46;;;-0.96;69.47
44044;BME280;29709;52.396;16.796;2023-12-04T15:02:54;101975.28;;;-1.05;70.09
44044;BME280;29709;52.396;16.796;2023-12-04T15:06:19;101977.94;;;-1.04;70.24
44044;BME280;29709;52.396;16.796;2023-12-04T15:09:43;101983.44;;;-1.07;70.21
44044;BME280;29709;52.396;16.796;2023-12-04T15:13:09;101980.73;;;-1.07;70.22
44044;BME280;29709;52.396;16.796;2023-12-04T15:16:34;101982.70;;;-1.10;70.69
44044;BME280;29709;52.396;16.796;2023-12-04T15:19:58;101977.98;;;-1.05;70.80
44044;BME280;29709;52.396;16.796;2023-12-04T15:23:23;101972.99;;;-0.94;70.76
44044;BME280;29709;52.396;16.796;2023-12-04T15:26:37;101969.16;;;-0.89;70.81
44044;BME280;29709;52.396;16.796;2023-12-04T15:29:52;101965.66;;;-0.91;70.49
44044;BME280;29709;52.396;16.796;2023-12-04T15:33:05;101958.91;;;-1.01;70.79
44044;BME280;29709;52.396;16.796;2023-12-04T15:36:19;101954.77;;;-1.09;70.92
44044;BME280;29709;52.396;16.796;2023-12-04T15:39:35;101957.69;;;-1.14;71.25
44044;BME280;29709;52.396;16.796;2023-12-04T15:42:48;101951.41;;;-1.14;71.27
44044;BME280;29709;52.396;16.796;2023-12-04T15:46:02;101954.05;;;-1.13;71.75
44044;BME280;29709;52.396;16.796;2023-12-04T15:49:19;101947.70;;;-1.12;71.61
44044;BME280;29709;52.396;16.796;2023-12-04T15:52:33;101943.73;;;-1.03;71.53
44044;BME280;29709;52.396;16.796;2023-12-04T15:55:51;101951.83;;;-1.03;71.58
44044;BME280;29709;52.396;16.796;2023-12-04T15:59:05;101949.45;;;-1.11;71.55
44044;BME280;29709;52.396;16.796;2023-12-04T16:02:18;101951.21;;;-1.10;71.57
44044;BME280;29709;52.396;16.796;2023-12-04T16:05:32;101954.22;;;-1.18;71.55
44044;BME280;29709;52.396;16.796;2023-12-04T16:08:45;101942.77;;;-1.23;71.52
44044;BME280;29709;52.396;16.796;2023-12-04T16:11:59;101943.74;;;-1.25;71.76
44044;BME280;29709;52.396;16.796;2023-12-04T16:15:12;101945.98;;;-1.35;71.67
44044;BME280;29709;52.396;16.796;2023-12-04T16:18:35;101941.34;;;-1.31;72.08
44044;BME280;29709;52.396;16.796;2023-12-04T16:21:50;101948.68;;;-1.35;71.94
44044;BME280;29709;52.396;16.796;2023-12-04T16:25:05;101952.25;;;-1.34;72.21
44044;BME280;29709;52.396;16.796;2023-12-04T16:28:21;101946.52;;;-1.27;71.91
44044;BME280;29709;52.396;16.796;2023-12-04T16:31:35;101954.11;;;-1.36;72.37
44044;BME280;29709;52.396;16.796;2023-12-04T16:34:48;101940.45;;;-1.32;72.44
44044;BME280;29709;52.396;16.796;2023-12-04T16:38:02;101936.42;;;-1.22;72.04
44044;BME280;29709;52.396;16.796;2023-12-04T16:41:15;101935.20;;;-1.35;72.42
44044;BME280;29709;52.396;16.796;2023-12-04T16:44:29;101942.20;;;-1.31;72.41
44044;BME280;29709;52.396;16.796;2023-12-04T16:47:42;101932.49;;;-1.35;72.30
44044;BME280;29709;52.396;16.796;2023-12-04T16:50:56;101932.74;;;-1.41;72.59
44044;BME280;29709;52.396;16.796;2023-12-04T16:54:09;101925.04;;;-1.50;73.32
44044;BME280;29709;52.396;16.796;2023-12-04T16:57:23;101918.91;;;-1.54;73.02
44044;BME280;29709;52.396;16.796;2023-12-04T17:00:37;101911.63;;;-1.52;73.05